sensor_id;sensor_type;location;lat;lon;timestamp;pressure;altitude;pressure_sealevel;temperature;humidity
30618;BME280;17384;51.214;9.202;2023-05-23T00:00:58;98520.28;;;13.78;92.77
30618;BME280;17384;51.214;9.202;2023-05-23T00:03:25;98513.06;;;13.72;93.13
30618;BME280;17384;51.214;9.202;2023-05-23T00:05:50;98504.66;;;13.73;94.35
30618;BME280;17384;51.214;9.202;2023-05-23T00:08:16;98515.56;;;13.73;94.79
30618;BME280;17384;51.214;9.202;2023-05-23T00:10:42;98507.97;;;13.75;95.10
30618;BME280;17384;51.214;9.202;2023-05-23T00:13:08;98503.69;;;13.79;95.19
30618;BME280;17384;51.214;9.202;2023-05-23T00:15:34;98517.66;;;13.83;96.05
30618;BME280;17384;51.214;9.202;2023-05-23T00:18:02;98520.50;;;13.88;95.84
30618;BME280;17384;51.214;9.202;2023-05-23T00:20:27;98529.34;;;13.95;95.40
30618;BME280;17384;51.214;9.202;2023-05-23T00:22:55;98521.50;;;13.99;95.33
30618;BME280;17384;51.214;9.202;2023-05-23T00:25:23;98521.00;;;14.02;95.31
30618;BME280;17384;51.214;9.202;2023-05-23T00:27:49;98521.84;;;14.02;95.18
30618;BME280;17384;51.214;9.202;2023-05-23T00:30:15;98529.50;;;14.17;96.91
30618;BME280;17384;51.214;9.202;2023-05-23T00:32:40;98526.53;;;14.35;98.00
30618;BME280;17384;51.214;9.202;2023-05-23T00:35:06;98533.91;;;14.51;98.94
30618;BME280;17384;51.214;9.202;2023-05-23T00:37:32;98539.06;;;14.65;99.07
30618;BME280;17384;51.214;9.202;2023-05-23T00:39:58;98536.44;;;14.70;98.86
30618;BME280;17384;51.214;9.202;2023-05-23T00:42:24;98544.19;;;14.78;99.26
30618;BME280;17384;51.214;9.202;2023-05-23T00:44:49;98545.59;;;14.80;98.75
30618;BME280;17384;51.214;9.202;2023-05-23T00:47:15;98540.72;;;14.82;98.73
30618;BME280;17384;51.214;9.202;2023-05-23T00:49:42;98543.28;;;14.89;98.08
30618;BME280;17384;51.214;9.202;2023-05-23T00:52:08;98547.41;;;14.92;97.43
30618;BME280;17384;51.214;9.202;2023-05-23T00:54:35;98546.91;;;14.95;97.11
30618;BME280;17384;51.214;9.202;2023-05-23T00:57:01;98551.88;;;14.98;96.93
30618;BME280;17384;51.214;9.202;2023-05-23T00:59:29;98539.19;;;15.08;96.06
30618;BME280;17384;51.214;9.202;2023-05-23T01:01:56;98554.44;;;15.04;95.59
30618;BME280;17384;51.214;9.202;2023-05-23T01:04:22;98554.44;;;15.04;93.29
30618;BME280;17384;51.214;9.202;2023-05-23T01:07:01;98561.97;;;14.97;90.07
30618;BME280;17384;51.214;9.202;2023-05-23T01:09:27;98562.97;;;14.91;88.03
30618;BME280;17384;51.214;9.202;2023-05-23T01:14:48;98554.28;;;14.77;85.75
30618;BME280;17384;51.214;9.202;2023-05-23T01:17:27;98554.97;;;14.68;85.79
30618;BME280;17384;51.214;9.202;2023-05-23T01:20:11;98557.94;;;14.66;84.55
30618;BME280;17384;51.214;9.202;2023-05-23T01:28:27;98540.16;;;14.47;85.14
30618;BME280;17384;51.214;9.202;2023-05-23T01:30:59;98535.28;;;14.49;84.34
30618;BME280;17384;51.214;9.202;2023-05-23T01:33:37;98537.72;;;14.50;84.17
30618;BME280;17384;51.214;9.202;2023-05-23T01:36:04;98539.22;;;14.41;85.06
30618;BME280;17384;51.214;9.202;2023-05-23T01:38:30;98541.25;;;14.34;85.27
30618;BME280;17384;51.214;9.202;2023-05-23T01:40:56;98540.06;;;14.30;85.94
30618;BME280;17384;51.214;9.202;2023-05-23T01:43:22;98546.84;;;14.28;86.06
30618;BME280;17384;51.214;9.202;2023-05-23T01:45:49;98549.00;;;14.26;85.87
30618;BME280;17384;51.214;9.202;2023-05-23T01:48:16;98550.72;;;14.15;86.29
30618;BME280;17384;51.214;9.202;2023-05-23T01:50:43;98557.97;;;14.09;84.06
30618;BME280;17384;51.214;9.202;2023-05-23T01:53:13;98543.97;;;14.17;83.21
30618;BME280;17384;51.214;9.202;2023-05-23T01:55:49;98546.94;;;14.16;84.05
30618;BME280;17384;51.214;9.202;2023-05-23T01:58:15;98551.56;;;14.15;84.28
30618;BME280;17384;51.214;9.202;2023-05-23T02:00:41;98550.38;;;14.11;84.67
30618;BME280;17384;51.214;9.202;2023-05-23T02:03:06;98552.28;;;14.11;84.45
30618;BME280;17384;51.214;9.202;2023-05-23T02:05:32;98552.19;;;14.06;83.80
30618;BME280;17384;51.214;9.202;2023-05-23T02:08:00;98544.72;;;14.01;83.64
30618;BME280;17384;51.214;9.202;2023-05-23T02:13:15;98542.81;;;14.02;83.41
30618;BME280;17384;51.214;9.202;2023-05-23T02:15:43;98552.09;;;14.01;83.45
30618;BME280;17384;51.214;9.202;2023-05-23T02:18:09;98560.75;;;13.98;83.79
30618;BME280;17384;51.214;9.202;2023-05-23T02:20:52;98546.13;;;14.04;83.48
30618;BME280;17384;51.214;9.202;2023-05-23T02:23:18;98553.97;;;14.00;83.63
30618;BME280;17384;51.214;9.202;2023-05-23T02:25:44;98552.91;;;14.01;83.73
30618;BME280;17384;51.214;9.202;2023-05-23T02:28:09;98549.34;;;14.01;84.21
30618;BME280;17384;51.214;9.202;2023-05-23T02:30:37;98546.50;;;14.07;83.81
30618;BME280;17384;51.214;9.202;2023-05-23T02:33:06;98548.63;;;14.05;84.14
30618;BME280;17384;51.214;9.202;2023-05-23T02:35:32;98546.38;;;14.02;83.90
30618;BME280;17384;51.214;9.202;2023-05-23T02:38:01;98558.13;;;14.03;83.95
30618;BME280;17384;51.214;9.202;2023-05-23T02:40:26;98563.72;;;13.96;84.25
30618;BME280;17384;51.214;9.202;2023-05-23T02:42:52;98565.97;;;13.99;83.96
30618;BME280;17384;51.214;9.202;2023-05-23T02:45:21;98571.34;;;13.94;84.39
30618;BME280;17384;51.214;9.202;2023-05-23T02:47:53;98562.56;;;13.92;83.78
30618;BME280;17384;51.214;9.202;2023-05-23T02:50:24;98571.25;;;13.89;84.35
30618;BME280;17384;51.214;9.202;2023-05-23T02:52:50;98580.00;;;13.91;84.27
30618;BME280;17384;51.214;9.202;2023-05-23T02:55:16;98579.41;;;13.89;84.06
30618;BME280;17384;51.214;9.202;2023-05-23T02:57:41;98578.47;;;13.83;84.87
30618;BME280;17384;51.214;9.202;2023-05-23T03:00:08;98587.97;;;13.81;85.05
30618;BME280;17384;51.214;9.202;2023-05-23T03:02:43;98589.75;;;13.75;85.13
30618;BME280;17384;51.214;9.202;2023-05-23T03:05:08;98579.19;;;13.79;84.12
30618;BME280;17384;51.214;9.202;2023-05-23T03:07:34;98582.75;;;13.79;84.40
30618;BME280;17384;51.214;9.202;2023-05-23T03:10:01;98585.00;;;13.82;84.24
30618;BME280;17384;51.214;9.202;2023-05-23T03:12:29;98587.97;;;13.81;84.01
30618;BME280;17384;51.214;9.202;2023-05-23T03:14:54;98587.38;;;13.79;84.38
30618;BME280;17384;51.214;9.202;2023-05-23T03:17:20;98590.22;;;13.72;84.02
30618;BME280;17384;51.214;9.202;2023-05-23T03:19:46;98585.25;;;13.69;84.57
30618;BME280;17384;51.214;9.202;2023-05-23T03:22:11;98584.13;;;13.65;84.32
30618;BME280;17384;51.214;9.202;2023-05-23T03:24:37;98592.28;;;13.65;84.00
30618;BME280;17384;51.214;9.202;2023-05-23T03:27:02;98597.50;;;13.67;84.21
30618;BME280;17384;51.214;9.202;2023-05-23T03:29:28;98590.88;;;13.63;84.59
30618;BME280;17384;51.214;9.202;2023-05-23T03:31:53;98600.13;;;13.62;84.10
30618;BME280;17384;51.214;9.202;2023-05-23T03:34:19;98602.13;;;13.54;84.04
30618;BME280;17384;51.214;9.202;2023-05-23T03:36:47;98603.69;;;13.50;84.12
30618;BME280;17384;51.214;9.202;2023-05-23T03:39:15;98603.19;;;13.53;83.99
30618;BME280;17384;51.214;9.202;2023-05-23T03:41:41;98610.56;;;13.53;83.98
30618;BME280;17384;51.214;9.202;2023-05-23T03:44:06;98611.72;;;13.57;83.27
30618;BME280;17384;51.214;9.202;2023-05-23T03:46:34;98613.16;;;13.48;83.51
30618;BME280;17384;51.214;9.202;2023-05-23T03:49:00;98609.59;;;13.47;83.45
30618;BME280;17384;51.214;9.202;2023-05-23T03:51:26;98616.47;;;13.50;83.75
30618;BME280;17384;51.214;9.202;2023-05-23T03:53:52;98612.81;;;13.56;83.56
30618;BME280;17384;51.214;9.202;2023-05-23T03:56:18;98613.41;;;13.46;82.98
30618;BME280;17384;51.214;9.202;2023-05-23T03:58:43;98625.72;;;13.49;83.30
30618;BME280;17384;51.214;9.202;2023-05-23T04:01:09;98628.22;;;13.50;83.87
30618;BME280;17384;51.214;9.202;2023-05-23T04:03:37;98638.63;;;13.42;83.35
30618;BME280;17384;51.214;9.202;2023-05-23T04:06:03;98649.66;;;13.35;83.98
30618;BME280;17384;51.214;9.202;2023-05-23T04:08:29;98644.34;;;13.29;84.39
30618;BME280;17384;51.214;9.202;2023-05-23T04:11:01;98642.56;;;13.23;84.74
30618;BME280;17384;51.214;9.202;2023-05-23T04:13:36;98644.31;;;13.17;84.92
30618;BME280;17384;51.214;9.202;2023-05-23T04:16:02;98638.16;;;13.21;84.94
30618;BME280;17384;51.214;9.202;2023-05-23T04:18:48;98631.97;;;13.14;85.58
30618;BME280;17384;51.214;9.202;2023-05-23T04:21:14;98630.31;;;13.13;85.61
30618;BME280;17384;51.214;9.202;2023-05-23T04:23:40;98631.28;;;13.07;85.88
30618;BME280;17384;51.214;9.202;2023-05-23T04:26:22;98634.00;;;13.19;86.02
30618;BME280;17384;51.214;9.202;2023-05-23T04:28:51;98626.53;;;13.14;85.34
30618;BME280;17384;51.214;9.202;2023-05-23T04:31:19;98634.13;;;13.12;85.98
30618;BME280;17384;51.214;9.202;2023-05-23T04:33:47;98629.16;;;13.09;86.24
30618;BME280;17384;51.214;9.202;2023-05-23T04:36:13;98633.03;;;13.13;86.11
30618;BME280;17384;51.214;9.202;2023-05-23T04:38:45;98634.13;;;13.12;86.15
30618;BME280;17384;51.214;9.202;2023-05-23T04:41:11;98634.59;;;13.09;85.84
30618;BME280;17384;51.214;9.202;2023-05-23T04:43:37;98635.88;;;13.07;85.37
30618;BME280;17384;51.214;9.202;2023-05-23T04:46:15;98638.38;;;13.08;84.88
30618;BME280;17384;51.214;9.202;2023-05-23T04:48:42;98638.25;;;13.03;85.26
30618;BME280;17384;51.214;9.202;2023-05-23T04:51:12;98638.25;;;13.03;84.87
30618;BME280;17384;51.214;9.202;2023-05-23T04:53:37;98637.41;;;13.03;85.11
30618;BME280;17384;51.214;9.202;2023-05-23T04:56:05;98646.41;;;13.03;85.16
30618;BME280;17384;51.214;9.202;2023-05-23T04:58:42;98649.00;;;12.98;85.75
30618;BME280;17384;51.214;9.202;2023-05-23T05:01:10;98654.09;;;12.95;85.30
30618;BME280;17384;51.214;9.202;2023-05-23T05:03:39;98649.00;;;12.98;85.91
30618;BME280;17384;51.214;9.202;2023-05-23T05:06:05;98658.25;;;12.97;86.80
30618;BME280;17384;51.214;9.202;2023-05-23T05:08:31;98652.56;;;12.99;87.05
30618;BME280;17384;51.214;9.202;2023-05-23T05:10:57;98661.69;;;13.04;87.02
30618;BME280;17384;51.214;9.202;2023-05-23T05:13:22;98663.69;;;12.97;87.06
30618;BME280;17384;51.214;9.202;2023-05-23T05:15:48;98664.41;;;13.04;86.68
30618;BME280;17384;51.214;9.202;2023-05-23T05:18:14;98654.00;;;13.13;86.50
30618;BME280;17384;51.214;9.202;2023-05-23T05:20:40;98660.31;;;13.25;86.14
30618;BME280;17384;51.214;9.202;2023-05-23T05:23:06;98659.16;;;13.33;85.89
30618;BME280;17384;51.214;9.202;2023-05-23T05:25:34;98668.13;;;13.45;86.40
30618;BME280;17384;51.214;9.202;2023-05-23T05:28:01;98663.16;;;13.30;85.60
30618;BME280;17384;51.214;9.202;2023-05-23T05:30:30;98659.59;;;13.41;85.51
30618;BME280;17384;51.214;9.202;2023-05-23T05:33:08;98680.56;;;13.41;85.46
30618;BME280;17384;51.214;9.202;2023-05-23T05:35:34;98662.22;;;13.36;85.34
30618;BME280;17384;51.214;9.202;2023-05-23T05:38:02;98659.28;;;13.38;85.99
30618;BME280;17384;51.214;9.202;2023-05-23T05:40:32;98664.09;;;13.47;85.58
30618;BME280;17384;51.214;9.202;2023-05-23T05:42:57;98666.25;;;13.45;85.10
30618;BME280;17384;51.214;9.202;2023-05-23T05:45:23;98670.97;;;13.50;85.23
30618;BME280;17384;51.214;9.202;2023-05-23T05:47:48;98662.47;;;13.58;85.02
30618;BME280;17384;51.214;9.202;2023-05-23T05:50:14;98661.50;;;13.52;85.46
30618;BME280;17384;51.214;9.202;2023-05-23T05:52:40;98661.88;;;13.56;85.32
30618;BME280;17384;51.214;9.202;2023-05-23T05:55:08;98662.56;;;13.63;84.57
30618;BME280;17384;51.214;9.202;2023-05-23T05:57:37;98671.00;;;13.62;84.41
30618;BME280;17384;51.214;9.202;2023-05-23T06:00:06;98675.25;;;13.58;84.96
30618;BME280;17384;51.214;9.202;2023-05-23T06:02:43;98667.56;;;13.66;84.64
30618;BME280;17384;51.214;9.202;2023-05-23T06:05:11;98677.75;;;13.59;84.84
30618;BME280;17384;51.214;9.202;2023-05-23T06:07:38;98666.13;;;13.64;84.76
30618;BME280;17384;51.214;9.202;2023-05-23T06:10:03;98665.06;;;13.65;84.83
30618;BME280;17384;51.214;9.202;2023-05-23T06:12:29;98660.22;;;13.67;85.13
30618;BME280;17384;51.214;9.202;2023-05-23T06:14:54;98678.19;;;13.68;84.99
30618;BME280;17384;51.214;9.202;2023-05-23T06:17:20;98673.56;;;13.68;84.85
30618;BME280;17384;51.214;9.202;2023-05-23T06:19:46;98679.03;;;13.68;85.19
30618;BME280;17384;51.214;9.202;2023-05-23T06:22:11;98678.53;;;13.71;85.06
30618;BME280;17384;51.214;9.202;2023-05-23T06:24:36;98688.38;;;13.72;85.32
30618;BME280;17384;51.214;9.202;2023-05-23T06:27:02;98679.25;;;13.78;84.80
30618;BME280;17384;51.214;9.202;2023-05-23T06:29:28;98684.13;;;13.88;84.81
30618;BME280;17384;51.214;9.202;2023-05-23T06:31:55;98670.09;;;13.96;85.27
30618;BME280;17384;51.214;9.202;2023-05-23T06:34:21;98674.94;;;14.06;84.47
30618;BME280;17384;51.214;9.202;2023-05-23T06:36:46;98681.56;;;14.10;84.23
30618;BME280;17384;51.214;9.202;2023-05-23T06:39:13;98680.13;;;14.19;83.92
30618;BME280;17384;51.214;9.202;2023-05-23T06:41:38;98678.47;;;14.18;83.21
30618;BME280;17384;51.214;9.202;2023-05-23T06:44:04;98677.25;;;14.26;83.59
30618;BME280;17384;51.214;9.202;2023-05-23T06:46:30;98675.28;;;14.21;83.31
30618;BME280;17384;51.214;9.202;2023-05-23T06:48:56;98684.22;;;14.33;83.15
30618;BME280;17384;51.214;9.202;2023-05-23T06:51:21;98676.75;;;14.29;82.88
30618;BME280;17384;51.214;9.202;2023-05-23T06:53:49;98685.00;;;14.17;83.58
30618;BME280;17384;51.214;9.202;2023-05-23T06:56:15;98684.31;;;14.10;83.78
30618;BME280;17384;51.214;9.202;2023-05-23T06:59:26;98678.59;;;14.11;83.91
30618;BME280;17384;51.214;9.202;2023-05-23T07:01:32;98691.63;;;14.21;84.01
30618;BME280;17384;51.214;9.202;2023-05-23T07:03:58;98690.34;;;14.12;83.55
30618;BME280;17384;51.214;9.202;2023-05-23T07:06:23;98692.38;;;14.05;84.43
30618;BME280;17384;51.214;9.202;2023-05-23T07:08:53;98696.06;;;13.99;84.67
30618;BME280;17384;51.214;9.202;2023-05-23T07:11:20;98694.06;;;13.82;84.87
30618;BME280;17384;51.214;9.202;2023-05-23T07:13:45;98691.00;;;13.79;84.89
30618;BME280;17384;51.214;9.202;2023-05-23T07:16:11;98696.31;;;13.74;85.59
30618;BME280;17384;51.214;9.202;2023-05-23T07:18:37;98698.69;;;13.82;85.81
30618;BME280;17384;51.214;9.202;2023-05-23T07:21:02;98702.84;;;13.84;86.32
30618;BME280;17384;51.214;9.202;2023-05-23T07:23:31;98697.41;;;13.84;85.87
30618;BME280;17384;51.214;9.202;2023-05-23T07:26:00;98706.16;;;13.86;85.74
30618;BME280;17384;51.214;9.202;2023-05-23T07:28:29;98701.31;;;13.88;85.73
30618;BME280;17384;51.214;9.202;2023-05-23T07:30:55;98704.72;;;13.96;84.85
30618;BME280;17384;51.214;9.202;2023-05-23T07:33:22;98715.28;;;13.92;85.93
30618;BME280;17384;51.214;9.202;2023-05-23T07:35:47;98716.13;;;13.93;85.38
30618;BME280;17384;51.214;9.202;2023-05-23T07:38:13;98706.50;;;14.02;85.22
30618;BME280;17384;51.214;9.202;2023-05-23T07:40:38;98706.00;;;14.05;85.00
30618;BME280;17384;51.214;9.202;2023-05-23T07:43:04;98707.06;;;14.04;85.44
30618;BME280;17384;51.214;9.202;2023-05-23T07:45:30;98709.34;;;14.07;85.26
30618;BME280;17384;51.214;9.202;2023-05-23T07:47:55;98711.34;;;14.11;85.80
30618;BME280;17384;51.214;9.202;2023-05-23T07:50:21;98717.63;;;14.12;85.96
30618;BME280;17384;51.214;9.202;2023-05-23T07:52:47;98717.03;;;14.10;86.29
30618;BME280;17384;51.214;9.202;2023-05-23T07:55:12;98720.38;;;14.00;85.71
30618;BME280;17384;51.214;9.202;2023-05-23T07:57:38;98721.44;;;13.99;86.77
30618;BME280;17384;51.214;9.202;2023-05-23T08:00:04;98725.38;;;13.92;86.16
30618;BME280;17384;51.214;9.202;2023-05-23T08:02:31;98732.81;;;14.08;85.86
30618;BME280;17384;51.214;9.202;2023-05-23T08:04:56;98736.00;;;14.05;85.87
30618;BME280;17384;51.214;9.202;2023-05-23T08:07:23;98726.81;;;13.94;85.54
30618;BME280;17384;51.214;9.202;2023-05-23T08:09:49;98734.84;;;14.01;85.90
30618;BME280;17384;51.214;9.202;2023-05-23T08:12:14;98734.84;;;14.01;85.45
30618;BME280;17384;51.214;9.202;2023-05-23T08:14:40;98741.34;;;14.00;85.42
30618;BME280;17384;51.214;9.202;2023-05-23T08:17:05;98749.56;;;13.88;85.47
30618;BME280;17384;51.214;9.202;2023-05-23T08:19:31;98746.38;;;13.91;85.91
30618;BME280;17384;51.214;9.202;2023-05-23T08:21:56;98745.06;;;13.94;85.73
30618;BME280;17384;51.214;9.202;2023-05-23T08:24:22;98755.13;;;14.05;84.97
30618;BME280;17384;51.214;9.202;2023-05-23T08:26:48;98748.13;;;14.09;84.76
30618;BME280;17384;51.214;9.202;2023-05-23T08:29:14;98759.84;;;14.09;84.37
30618;BME280;17384;51.214;9.202;2023-05-23T08:31:40;98748.81;;;14.04;85.03
30618;BME280;17384;51.214;9.202;2023-05-23T08:34:06;98763.19;;;13.88;84.57
30618;BME280;17384;51.214;9.202;2023-05-23T08:36:31;98760.22;;;13.78;85.32
30618;BME280;17384;51.214;9.202;2023-05-23T08:39:01;98756.44;;;13.67;85.33
30618;BME280;17384;51.214;9.202;2023-05-23T08:41:29;98769.22;;;13.55;86.73
30618;BME280;17384;51.214;9.202;2023-05-23T08:43:56;98761.66;;;13.57;87.35
30618;BME280;17384;51.214;9.202;2023-05-23T08:46:22;98773.47;;;13.51;87.16
30618;BME280;17384;51.214;9.202;2023-05-23T08:48:51;98772.53;;;13.45;89.20
30618;BME280;17384;51.214;9.202;2023-05-23T08:51:21;98767.91;;;13.46;88.55
30618;BME280;17384;51.214;9.202;2023-05-23T08:53:47;98769.69;;;13.52;89.08
30618;BME280;17384;51.214;9.202;2023-05-23T08:56:13;98779.06;;;13.56;89.57
30618;BME280;17384;51.214;9.202;2023-05-23T08:58:41;98777.66;;;13.65;88.67
30618;BME280;17384;51.214;9.202;2023-05-23T09:01:08;98777.28;;;13.73;89.03
30618;BME280;17384;51.214;9.202;2023-05-23T09:03:35;98787.25;;;13.79;89.07
30618;BME280;17384;51.214;9.202;2023-05-23T09:06:03;98787.50;;;13.66;88.49
30618;BME280;17384;51.214;9.202;2023-05-23T09:08:31;98791.63;;;13.69;89.35
30618;BME280;17384;51.214;9.202;2023-05-23T09:10:56;98797.22;;;13.62;88.96
30618;BME280;17384;51.214;9.202;2023-05-23T09:13:22;98788.03;;;13.45;88.79
30618;BME280;17384;51.214;9.202;2023-05-23T09:16:00;98795.84;;;13.30;88.32
30618;BME280;17384;51.214;9.202;2023-05-23T09:18:26;98799.16;;;13.32;89.07
30618;BME280;17384;51.214;9.202;2023-05-23T09:20:57;98801.53;;;13.28;89.11
30618;BME280;17384;51.214;9.202;2023-05-23T09:23:23;98804.34;;;13.21;89.11
30618;BME280;17384;51.214;9.202;2023-05-23T09:25:48;98810.03;;;13.20;88.47
30618;BME280;17384;51.214;9.202;2023-05-23T09:28:14;98813.44;;;13.15;88.58
30618;BME280;17384;51.214;9.202;2023-05-23T09:30:40;98819.19;;;13.07;88.54
30618;BME280;17384;51.214;9.202;2023-05-23T09:33:06;98823.97;;;12.94;89.02
30618;BME280;17384;51.214;9.202;2023-05-23T09:35:32;98838.78;;;12.68;89.40
30618;BME280;17384;51.214;9.202;2023-05-23T09:37:57;98828.06;;;12.54;89.79
30618;BME280;17384;51.214;9.202;2023-05-23T09:40:28;98829.16;;;12.65;89.86
30618;BME280;17384;51.214;9.202;2023-05-23T09:43:02;98838.91;;;12.73;89.32
30618;BME280;17384;51.214;9.202;2023-05-23T09:45:32;98841.50;;;12.68;89.01
30618;BME280;17384;51.214;9.202;2023-05-23T09:47:58;98844.22;;;12.68;88.95
30618;BME280;17384;51.214;9.202;2023-05-23T09:50:29;98839.00;;;12.84;87.82
30618;BME280;17384;51.214;9.202;2023-05-23T09:52:55;98855.03;;;12.74;87.90
30618;BME280;17384;51.214;9.202;2023-05-23T09:55:21;98847.53;;;12.70;87.41
30618;BME280;17384;51.214;9.202;2023-05-23T09:57:49;98851.47;;;12.74;87.05
30618;BME280;17384;51.214;9.202;2023-05-23T10:00:18;98856.91;;;12.74;86.87
30618;BME280;17384;51.214;9.202;2023-05-23T10:05:46;98858.06;;;12.84;87.37
30618;BME280;17384;51.214;9.202;2023-05-23T10:08:24;98868.84;;;12.91;87.61
30618;BME280;17384;51.214;9.202;2023-05-23T10:13:27;98866.06;;;12.79;87.72
30618;BME280;17384;51.214;9.202;2023-05-23T10:16:04;98870.63;;;12.85;87.79
30618;BME280;17384;51.214;9.202;2023-05-23T10:18:43;98864.75;;;13.00;87.30
30618;BME280;17384;51.214;9.202;2023-05-23T10:21:18;98865.88;;;13.11;86.45
30618;BME280;17384;51.214;9.202;2023-05-23T10:23:59;98865.75;;;12.87;86.31
30618;BME280;17384;51.214;9.202;2023-05-23T10:26:26;98859.47;;;12.87;86.83
30618;BME280;17384;51.214;9.202;2023-05-23T10:28:53;98866.06;;;12.79;86.92
30618;BME280;17384;51.214;9.202;2023-05-23T10:31:23;98862.81;;;12.71;86.60
30618;BME280;17384;51.214;9.202;2023-05-23T10:34:45;98879.06;;;12.59;87.19
30618;BME280;17384;51.214;9.202;2023-05-23T10:36:58;98867.81;;;12.56;87.11
30618;BME280;17384;51.214;9.202;2023-05-23T10:39:53;98887.38;;;12.64;87.14
30618;BME280;17384;51.214;9.202;2023-05-23T10:45:18;98885.03;;;12.68;86.46
30618;BME280;17384;51.214;9.202;2023-05-23T10:47:46;98888.44;;;12.45;87.72
30618;BME280;17384;51.214;9.202;2023-05-23T10:50:15;98871.34;;;12.38;88.30
30618;BME280;17384;51.214;9.202;2023-05-23T10:52:42;98881.41;;;12.37;87.86
30618;BME280;17384;51.214;9.202;2023-05-23T10:55:14;98890.63;;;12.36;87.62
30618;BME280;17384;51.214;9.202;2023-05-23T10:57:45;98892.06;;;12.39;87.96
30618;BME280;17384;51.214;9.202;2023-05-23T11:00:16;98890.22;;;12.33;87.82
30618;BME280;17384;51.214;9.202;2023-05-23T11:02:59;98899.84;;;12.35;88.73
30618;BME280;17384;51.214;9.202;2023-05-23T11:05:27;98903.69;;;12.28;88.73
30618;BME280;17384;51.214;9.202;2023-05-23T11:08:13;98897.88;;;12.42;88.38
30618;BME280;17384;51.214;9.202;2023-05-23T11:11:00;98906.03;;;12.24;89.10
30618;BME280;17384;51.214;9.202;2023-05-23T11:13:56;98920.69;;;12.23;89.58
30618;BME280;17384;51.214;9.202;2023-05-23T11:16:24;98919.84;;;12.23;89.57
30618;BME280;17384;51.214;9.202;2023-05-23T11:18:50;98913.25;;;12.12;89.29
30618;BME280;17384;51.214;9.202;2023-05-23T11:21:16;98914.03;;;11.94;89.90
30618;BME280;17384;51.214;9.202;2023-05-23T11:23:44;98923.13;;;12.06;90.45
30618;BME280;17384;51.214;9.202;2023-05-23T11:27:16;98925.59;;;12.08;89.63
30618;BME280;17384;51.214;9.202;2023-05-23T11:29:35;98925.59;;;12.08;89.72
30618;BME280;17384;51.214;9.202;2023-05-23T11:32:11;98917.75;;;12.00;88.76
30618;BME280;17384;51.214;9.202;2023-05-23T11:34:38;98913.19;;;11.94;89.43
30618;BME280;17384;51.214;9.202;2023-05-23T11:37:03;98933.63;;;12.03;89.19
30618;BME280;17384;51.214;9.202;2023-05-23T11:39:29;98925.28;;;11.98;89.04
30618;BME280;17384;51.214;9.202;2023-05-23T11:42:01;98929.91;;;11.97;88.99
30618;BME280;17384;51.214;9.202;2023-05-23T11:44:27;98924.16;;;12.05;88.50
30618;BME280;17384;51.214;9.202;2023-05-23T11:47:05;98931.34;;;12.00;88.51
30618;BME280;17384;51.214;9.202;2023-05-23T11:49:34;98950.31;;;12.06;89.12
30618;BME280;17384;51.214;9.202;2023-05-23T11:52:03;98942.09;;;12.13;88.54
30618;BME280;17384;51.214;9.202;2023-05-23T11:54:29;98944.56;;;12.21;88.55
30618;BME280;17384;51.214;9.202;2023-05-23T11:56:55;98954.66;;;12.14;88.90
30618;BME280;17384;51.214;9.202;2023-05-23T11:59:21;98932.72;;;12.09;88.59
30618;BME280;17384;51.214;9.202;2023-05-23T12:01:51;98949.38;;;11.94;88.86
30618;BME280;17384;51.214;9.202;2023-05-23T12:04:20;98956.91;;;11.92;89.14
30618;BME280;17384;51.214;9.202;2023-05-23T12:06:47;98967.59;;;11.87;89.82
30618;BME280;17384;51.214;9.202;2023-05-23T12:09:18;98956.41;;;11.70;89.15
30618;BME280;17384;51.214;9.202;2023-05-23T12:11:44;98966.84;;;11.73;89.79
30618;BME280;17384;51.214;9.202;2023-05-23T12:14:18;98967.28;;;11.70;90.54
30618;BME280;17384;51.214;9.202;2023-05-23T12:16:44;98966.88;;;11.67;89.86
30618;BME280;17384;51.214;9.202;2023-05-23T12:19:11;98960.06;;;11.51;90.37
30618;BME280;17384;51.214;9.202;2023-05-23T12:21:45;98957.53;;;11.56;90.68
30618;BME280;17384;51.214;9.202;2023-05-23T12:24:19;98961.25;;;11.62;90.40
30618;BME280;17384;51.214;9.202;2023-05-23T12:26:53;98973.13;;;11.74;89.17
30618;BME280;17384;51.214;9.202;2023-05-23T12:29:36;98962.72;;;11.64;89.01
30618;BME280;17384;51.214;9.202;2023-05-23T12:32:08;98958.00;;;11.84;88.61
30618;BME280;17384;51.214;9.202;2023-05-23T12:34:39;98967.66;;;11.80;88.43
30618;BME280;17384;51.214;9.202;2023-05-23T12:37:05;98970.91;;;11.96;88.24
30618;BME280;17384;51.214;9.202;2023-05-23T12:39:32;98975.69;;;12.00;87.31
30618;BME280;17384;51.214;9.202;2023-05-23T12:42:10;98975.50;;;11.95;87.31
30618;BME280;17384;51.214;9.202;2023-05-23T12:44:35;98972.22;;;11.86;87.25
30618;BME280;17384;51.214;9.202;2023-05-23T12:47:04;98982.63;;;11.96;87.07
30618;BME280;17384;51.214;9.202;2023-05-23T12:49:33;98977.91;;;11.78;88.01
30618;BME280;17384;51.214;9.202;2023-05-23T12:51:58;98988.09;;;11.90;87.69
30618;BME280;17384;51.214;9.202;2023-05-23T12:54:24;98994.22;;;11.78;87.87
30618;BME280;17384;51.214;9.202;2023-05-23T12:56:49;99001.53;;;11.78;87.03
30618;BME280;17384;51.214;9.202;2023-05-23T12:59:15;99002.75;;;11.82;87.29
30618;BME280;17384;51.214;9.202;2023-05-23T13:01:43;99002.91;;;11.94;86.98
30618;BME280;17384;51.214;9.202;2023-05-23T13:04:09;99001.88;;;11.95;85.73
30618;BME280;17384;51.214;9.202;2023-05-23T13:06:34;99003.94;;;11.99;85.94
30618;BME280;17384;51.214;9.202;2023-05-23T13:09:04;99005.91;;;12.10;86.03
30618;BME280;17384;51.214;9.202;2023-05-23T13:11:29;99015.31;;;12.39;85.14
30618;BME280;17384;51.214;9.202;2023-05-23T13:13:57;99022.66;;;12.64;82.21
30618;BME280;17384;51.214;9.202;2023-05-23T13:16:22;99013.69;;;12.81;81.02
30618;BME280;17384;51.214;9.202;2023-05-23T13:18:48;99016.88;;;12.97;79.22
30618;BME280;17384;51.214;9.202;2023-05-23T13:21:17;99016.22;;;13.01;78.42
30618;BME280;17384;51.214;9.202;2023-05-23T13:23:46;99007.13;;;13.07;77.04
30618;BME280;17384;51.214;9.202;2023-05-23T13:26:29;99014.06;;;12.42;78.17